createdAt,value
2018-03-08T00:00:10.145Z,39.94
2018-03-08T00:01:10.161Z,39.97
2018-03-08T00:02:10.227Z,39.96
2018-03-08T00:03:10.175Z,39.97
2018-03-08T00:04:10.138Z,39.94
2018-03-08T00:05:10.136Z,39.96
2018-03-08T00:06:10.152Z,39.97
2018-03-08T00:07:10.223Z,39.94
2018-03-08T00:08:10.183Z,39.96
2018-03-08T00:09:10.159Z,39.95
2018-03-08T00:10:10.155Z,40.03
2018-03-08T00:11:10.156Z,39.94
2018-03-08T00:12:10.147Z,39.93
2018-03-08T00:13:10.192Z,39.94
2018-03-08T00:14:10.135Z,39.94
2018-03-08T00:15:10.149Z,39.96
2018-03-08T00:16:10.149Z,39.94
2018-03-08T00:17:10.269Z,39.92
2018-03-08T00:18:10.190Z,39.96
2018-03-08T00:19:10.161Z,39.95
2018-03-08T00:20:12.204Z,39.9
2018-03-08T00:21:10.183Z,39.98
2018-03-08T00:22:10.169Z,39.96
2018-03-08T00:23:10.456Z,39.96
2018-03-08T00:24:10.155Z,39.97
2018-03-08T00:25:10.164Z,39.97
2018-03-08T00:26:10.199Z,39.94
2018-03-08T00:27:10.156Z,39.96
2018-03-08T00:28:10.196Z,39.96
2018-03-08T00:29:10.133Z,39.98
2018-03-08T00:30:10.174Z,39.98
2018-03-08T00:31:10.167Z,39.97
2018-03-08T00:32:10.191Z,39.96
2018-03-08T00:33:10.174Z,39.95
2018-03-08T00:34:10.179Z,39.91
2018-03-08T00:35:10.123Z,39.95
2018-03-08T00:36:10.301Z,39.97
2018-03-08T00:37:10.141Z,39.97
2018-03-08T00:38:10.350Z,39.98
2018-03-08T00:39:10.423Z,39.94
2018-03-08T00:40:10.165Z,39.95
2018-03-08T00:41:10.147Z,39.99
2018-03-08T00:42:10.211Z,39.99
2018-03-08T00:43:10.145Z,40.02
2018-03-08T00:44:10.160Z,40
2018-03-08T00:45:10.219Z,40.03
2018-03-08T00:46:10.153Z,39.99
2018-03-08T00:47:10.167Z,39.93
2018-03-08T00:48:10.138Z,40.02
2018-03-08T00:49:10.130Z,39.95
2018-03-08T00:50:10.138Z,39.96
2018-03-08T00:51:10.159Z,40
2018-03-08T00:52:10.148Z,39.99
2018-03-08T00:53:10.134Z,39.99
2018-03-08T00:54:10.146Z,40.02
2018-03-08T00:55:10.142Z,40
2018-03-08T00:56:10.181Z,39.96
2018-03-08T00:57:10.159Z,40.06
2018-03-08T00:58:10.144Z,40.05
2018-03-08T00:59:10.119Z,40.01
2018-03-08T01:00:10.141Z,40.02
2018-03-08T01:01:10.173Z,40.01
2018-03-08T01:02:10.224Z,40.02
2018-03-08T01:03:10.237Z,40.04
2018-03-08T01:04:10.169Z,40.02
2018-03-08T01:05:10.218Z,40
2018-03-08T01:06:10.157Z,40.02
2018-03-08T01:07:10.146Z,40
2018-03-08T01:08:10.140Z,40.01
2018-03-08T01:09:10.288Z,40.03
2018-03-08T01:10:10.195Z,40.04
2018-03-08T01:11:10.391Z,40.01
2018-03-08T01:12:10.154Z,40.06
2018-03-08T01:13:10.175Z,39.97
2018-03-08T01:14:10.127Z,40.02
2018-03-08T01:15:10.184Z,40.01
2018-03-08T01:16:10.176Z,40.02
2018-03-08T01:17:10.133Z,40.06
2018-03-08T01:18:10.129Z,40.02
2018-03-08T01:19:10.118Z,40.03
2018-03-08T01:20:10.126Z,40.03
2018-03-08T01:21:10.156Z,40.03
2018-03-08T01:22:10.135Z,40.07
2018-03-08T01:23:10.129Z,40.03
2018-03-08T01:24:10.186Z,40.03
2018-03-08T01:25:10.138Z,40.04
2018-03-08T01:26:10.133Z,40.06
2018-03-08T01:27:10.369Z,40.04
2018-03-08T01:28:10.134Z,39.98
2018-03-08T01:29:10.126Z,40.03
2018-03-08T01:30:10.130Z,40.01
2018-03-08T01:31:10.139Z,40.05
2018-03-08T01:32:10.207Z,40.04
2018-03-08T01:33:10.121Z,40.05
2018-03-08T01:34:10.134Z,40.04
2018-03-08T01:35:10.258Z,40.04
2018-03-08T01:36:10.131Z,40.03
2018-03-08T01:37:10.144Z,40.01
2018-03-08T01:38:10.128Z,40.05
2018-03-08T01:39:10.185Z,40.04
2018-03-08T01:40:10.140Z,40.05
2018-03-08T01:41:10.113Z,40.06
2018-03-08T01:42:10.142Z,40.05
2018-03-08T01:43:10.168Z,40.01
2018-03-08T01:44:10.133Z,40.1
2018-03-08T01:45:10.182Z,40.05
2018-03-08T01:46:10.134Z,40.06
2018-03-08T01:47:10.117Z,40.07
2018-03-08T01:48:10.296Z,40.06
2018-03-08T01:49:10.153Z,40.08
2018-03-08T01:50:10.122Z,40.02
2018-03-08T01:51:10.135Z,40.09
2018-03-08T01:52:10.135Z,40.07
2018-03-08T01:53:10.112Z,40.07
2018-03-08T01:54:10.184Z,40.1
2018-03-08T01:55:10.165Z,40.07
2018-03-08T01:56:10.131Z,40.06
2018-03-08T01:57:10.113Z,40.04
2018-03-08T01:58:10.120Z,40.04
2018-03-08T01:59:10.146Z,40.02
2018-03-08T02:00:10.120Z,40.07
2018-03-08T02:01:10.114Z,40.04
2018-03-08T02:02:10.173Z,40.06
2018-03-08T02:03:10.114Z,40.03
2018-03-08T02:04:10.134Z,40.08
2018-03-08T02:05:10.137Z,40.06
2018-03-08T02:06:10.123Z,40.02
2018-03-08T02:07:10.122Z,39.98
2018-03-08T02:08:10.113Z,40.04
2018-03-08T02:09:10.109Z,40.03
2018-03-08T02:10:10.148Z,40.06
2018-03-08T02:11:10.109Z,40
2018-03-08T02:12:10.120Z,40.07
2018-03-08T02:13:10.121Z,40.07
2018-03-08T02:14:10.126Z,40.02
2018-03-08T02:15:10.120Z,40.02
2018-03-08T02:16:10.119Z,40.03
2018-03-08T02:17:10.110Z,40.08
2018-03-08T02:18:10.118Z,40.08
2018-03-08T02:19:10.110Z,40.04
2018-03-08T02:20:10.158Z,40.07
2018-03-08T02:21:10.102Z,40.04
2018-03-08T02:22:10.099Z,40.07
2018-03-08T02:23:10.120Z,40.04
2018-03-08T02:24:10.144Z,40.04
2018-03-08T02:25:10.128Z,40.08
2018-03-08T02:26:10.114Z,40.07
2018-03-08T02:27:10.105Z,40.08
2018-03-08T02:28:10.096Z,40.05
2018-03-08T02:29:10.138Z,40.08
2018-03-08T02:30:10.148Z,40.04
2018-03-08T02:31:10.144Z,40.06
2018-03-08T02:32:10.116Z,40.09
2018-03-08T02:33:10.104Z,40.08
2018-03-08T02:34:10.119Z,40.09
2018-03-08T02:35:10.142Z,40.09
2018-03-08T02:36:10.362Z,40.09
2018-03-08T02:37:10.145Z,40.1
2018-03-08T02:38:10.102Z,40.07
2018-03-08T02:39:10.164Z,40.09
2018-03-08T02:40:10.095Z,40.05
2018-03-08T02:41:10.166Z,40.05
2018-03-08T02:42:10.119Z,40.07
2018-03-08T02:43:10.158Z,40.07
2018-03-08T02:44:10.115Z,40.1
2018-03-08T02:45:10.126Z,40.1
2018-03-08T02:46:10.152Z,40.09
2018-03-08T02:47:10.159Z,40.07
2018-03-08T02:48:10.121Z,40.11
2018-03-08T02:49:10.119Z,40.09
2018-03-08T02:50:10.154Z,40.12
2018-03-08T02:51:10.135Z,40.11
2018-03-08T02:52:10.146Z,40.08
2018-03-08T02:53:10.141Z,40.07
2018-03-08T02:54:10.158Z,40.08
2018-03-08T02:55:10.116Z,40.06
2018-03-08T02:56:10.119Z,40.04
2018-03-08T02:57:10.179Z,40.06
2018-03-08T02:58:10.108Z,40.08
2018-03-08T02:59:10.384Z,40.07
2018-03-08T03:00:10.121Z,40.08
2018-03-08T03:01:10.111Z,40.1
2018-03-08T03:02:10.164Z,40.06
2018-03-08T03:03:10.215Z,40.12
2018-03-08T03:04:10.153Z,40.08
2018-03-08T03:05:10.130Z,40.1
2018-03-08T03:06:10.089Z,40.09
2018-03-08T03:07:10.096Z,40.07
2018-03-08T03:08:10.100Z,40.09
2018-03-08T03:09:10.080Z,40.05
2018-03-08T03:10:10.111Z,40.03
2018-03-08T03:11:10.129Z,40.07
2018-03-08T03:12:10.095Z,40.12
2018-03-08T03:13:10.106Z,40.07
2018-03-08T03:14:10.102Z,40.07
2018-03-08T03:15:10.100Z,40.09
2018-03-08T03:16:10.101Z,40.1
2018-03-08T03:17:10.102Z,40.08
2018-03-08T03:18:10.075Z,40.13
2018-03-08T03:19:10.084Z,40.1
2018-03-08T03:20:10.134Z,40.13
2018-03-08T03:21:10.084Z,40.08
2018-03-08T03:22:10.103Z,40.08
2018-03-08T03:23:10.082Z,40.08
2018-03-08T03:24:10.165Z,40.04
2018-03-08T03:25:10.106Z,40.12
2018-03-08T03:26:10.084Z,40.09
2018-03-08T03:27:10.095Z,40.1
2018-03-08T03:28:10.084Z,40.1
2018-03-08T03:29:10.106Z,40.1
2018-03-08T03:30:10.117Z,40.09
2018-03-08T03:31:10.168Z,40.1
2018-03-08T03:32:10.108Z,40.07
2018-03-08T03:33:10.096Z,40.08
2018-03-08T03:34:10.115Z,40.09
2018-03-08T03:35:10.097Z,40.07
2018-03-08T03:36:10.421Z,40.09
2018-03-08T03:37:10.088Z,40.1
2018-03-08T03:38:10.145Z,40.07
2018-03-08T03:39:10.084Z,40.08
2018-03-08T03:40:10.079Z,40.1
2018-03-08T03:41:10.106Z,40.09
2018-03-08T03:42:10.091Z,40.07
2018-03-08T03:43:10.077Z,40.09
2018-03-08T03:44:10.091Z,40.11
2018-03-08T03:45:10.136Z,40.09
2018-03-08T03:46:10.136Z,40.07
2018-03-08T03:47:10.110Z,40.06
2018-03-08T03:48:10.100Z,40.07
2018-03-08T03:49:10.082Z,40.08
2018-03-08T03:50:10.092Z,40.11
2018-03-08T03:51:10.087Z,40.09
2018-03-08T03:52:10.131Z,40.07
2018-03-08T03:53:10.074Z,40.08
2018-03-08T03:54:10.074Z,40.07
2018-03-08T03:55:10.134Z,40.09
2018-03-08T03:56:10.077Z,40.03
2018-03-08T03:57:10.095Z,40.04
2018-03-08T03:58:10.089Z,40.09
2018-03-08T03:59:10.074Z,40.08
2018-03-08T04:00:10.139Z,40.11
2018-03-08T04:01:10.094Z,40.04
2018-03-08T04:02:10.076Z,40.05
2018-03-08T04:03:10.074Z,40.09
2018-03-08T04:04:10.074Z,40.03
2018-03-08T04:05:10.109Z,40.08
2018-03-08T04:06:10.068Z,40.12
2018-03-08T04:07:10.074Z,40.12
2018-03-08T04:08:10.075Z,40.08
2018-03-08T04:09:10.092Z,40.08
2018-03-08T04:10:10.092Z,40.11
2018-03-08T04:11:10.072Z,40.04
2018-03-08T04:12:10.499Z,40.07
2018-03-08T04:13:10.082Z,40.04
2018-03-08T04:14:10.060Z,40.04
2018-03-08T04:15:10.108Z,40.04
2018-03-08T04:16:10.079Z,40.07
2018-03-08T04:17:10.070Z,40.08
2018-03-08T04:18:10.081Z,40.1
2018-03-08T04:19:10.061Z,40.08
2018-03-08T04:20:10.076Z,40.06
2018-03-08T04:21:10.058Z,40.09
2018-03-08T04:22:10.064Z,40.05
2018-03-08T04:23:10.091Z,40.06
2018-03-08T04:24:10.072Z,40.13
2018-03-08T04:25:10.068Z,40.07
2018-03-08T04:26:10.074Z,40.09
2018-03-08T04:27:10.077Z,40.07
2018-03-08T04:28:10.071Z,40.06
2018-03-08T04:29:10.071Z,40.11
2018-03-08T04:30:10.175Z,40.09
2018-03-08T04:31:10.153Z,40.07
2018-03-08T04:32:10.141Z,40.1
2018-03-08T04:33:10.142Z,40.11
2018-03-08T04:34:10.137Z,40.11
2018-03-08T04:35:10.213Z,40.1
2018-03-08T04:36:10.138Z,40.12
2018-03-08T04:37:10.163Z,40.12
2018-03-08T04:38:10.133Z,40.11
2018-03-08T04:39:10.153Z,40.04
2018-03-08T04:40:10.127Z,40.1
2018-03-08T04:41:10.136Z,40.11
2018-03-08T04:42:10.141Z,40.12
2018-03-08T04:43:10.138Z,40.12
2018-03-08T04:44:10.143Z,40.07
2018-03-08T04:45:10.156Z,40.11
2018-03-08T04:46:10.136Z,40.08
2018-03-08T04:47:10.132Z,40.12
2018-03-08T04:48:10.201Z,40.09
2018-03-08T04:49:10.178Z,40.08
2018-03-08T04:50:10.117Z,40.11
2018-03-08T04:51:10.118Z,40.11
2018-03-08T04:52:10.079Z,40.16
2018-03-08T04:53:10.421Z,40.15
2018-03-08T04:54:10.126Z,40.16
2018-03-08T04:55:10.130Z,40.19
2018-03-08T04:56:10.102Z,40.15
2018-03-08T04:57:10.135Z,40.19
2018-03-08T04:58:10.136Z,40.13
2018-03-08T04:59:10.097Z,40.16
2018-03-08T05:00:10.107Z,40.16
2018-03-08T05:01:10.103Z,40.16
2018-03-08T05:02:10.102Z,40.14
2018-03-08T05:03:10.160Z,40.11
2018-03-08T05:04:10.210Z,40.14
2018-03-08T05:05:10.099Z,40.11
2018-03-08T05:06:10.112Z,40.2
2018-03-08T05:07:10.120Z,40.16
2018-03-08T05:08:10.098Z,40.2
2018-03-08T05:09:10.129Z,40.27
2018-03-08T05:10:10.239Z,40.2
2018-03-08T05:11:10.111Z,40.47
2018-03-08T05:12:10.117Z,40.55
2018-03-08T05:13:10.128Z,40.83
2018-03-08T05:14:10.133Z,40.75
2018-03-08T05:15:10.127Z,41.05
2018-03-08T05:16:10.111Z,41.04
2018-03-08T05:17:10.113Z,41.01
2018-03-08T05:18:10.117Z,41.11
2018-03-08T05:19:10.369Z,41.02
2018-03-08T05:20:10.111Z,40.89
2018-03-08T05:21:10.111Z,41.02
2018-03-08T05:22:10.060Z,41.05
2018-03-08T05:23:10.057Z,41.04
2018-03-08T05:24:10.138Z,40.96
2018-03-08T05:25:10.126Z,41.05
2018-03-08T05:26:10.114Z,41
2018-03-08T05:27:10.110Z,41.04
2018-03-08T05:28:10.130Z,40.74
2018-03-08T05:29:10.393Z,40.57
2018-03-08T05:30:10.097Z,40.5
2018-03-08T05:31:10.110Z,40.45
2018-03-08T05:32:10.068Z,40.68
2018-03-08T05:33:10.069Z,40.45
2018-03-08T05:34:10.059Z,40.57
2018-03-08T05:35:10.046Z,40.55
2018-03-08T05:36:10.045Z,40.58
2018-03-08T05:37:10.048Z,40.41
2018-03-08T05:38:10.041Z,40.46
2018-03-08T05:39:10.058Z,40.42
2018-03-08T05:40:10.096Z,40.5
2018-03-08T05:41:10.050Z,40.5
2018-03-08T05:42:10.072Z,40.48
2018-03-08T05:43:10.100Z,40.51
2018-03-08T05:44:10.046Z,40.53
2018-03-08T05:45:10.308Z,40.44
2018-03-08T05:46:10.050Z,40.49
2018-03-08T05:47:10.053Z,40.48
2018-03-08T05:48:10.051Z,40.46
2018-03-08T05:49:10.040Z,40.46
2018-03-08T05:50:10.070Z,40.47
2018-03-08T05:51:10.090Z,40.41
2018-03-08T05:52:10.042Z,40.46
2018-03-08T05:53:10.071Z,40.43
2018-03-08T05:54:10.038Z,40.44
2018-03-08T05:55:10.038Z,40.37
2018-03-08T05:56:10.071Z,40.48
2018-03-08T05:57:10.028Z,40.38
2018-03-08T05:58:10.055Z,40.36
2018-03-08T05:59:10.037Z,40.42
2018-03-08T06:00:10.036Z,40.45
2018-03-08T06:01:10.042Z,40.34
2018-03-08T06:02:10.045Z,40.34
2018-03-08T06:03:10.034Z,40.42
2018-03-08T06:04:10.038Z,40.4
2018-03-08T06:05:10.059Z,40.35
2018-03-08T06:06:10.064Z,40.37
2018-03-08T06:07:10.040Z,40.36
2018-03-08T06:08:10.058Z,40.41
2018-03-08T06:09:10.039Z,40.34
2018-03-08T06:10:10.046Z,40.38
2018-03-08T06:11:10.069Z,40.35
2018-03-08T06:12:10.066Z,40.34
2018-03-08T06:13:10.026Z,40.36
2018-03-08T06:14:10.032Z,40.31
2018-03-08T06:15:10.058Z,40.3
2018-03-08T06:16:10.032Z,40.35
2018-03-08T06:17:10.056Z,40.38
2018-03-08T06:18:10.033Z,40.31
2018-03-08T06:19:10.038Z,40.37
2018-03-08T06:20:10.040Z,40.26
2018-03-08T06:21:10.033Z,40.23
2018-03-08T06:22:10.048Z,40.25
2018-03-08T06:23:10.040Z,40.31
2018-03-08T06:24:10.031Z,40.28
2018-03-08T06:25:10.027Z,40.24
2018-03-08T06:26:10.329Z,40.23
2018-03-08T06:27:10.064Z,40.27
2018-03-08T06:28:10.032Z,40.25
2018-03-08T06:29:10.048Z,40.24
2018-03-08T06:30:10.055Z,40.21
2018-03-08T06:31:10.030Z,40.27
2018-03-08T06:32:10.052Z,40.26
2018-03-08T06:33:10.026Z,40.25
2018-03-08T06:34:10.024Z,40.25
2018-03-08T06:35:10.006Z,40.21
2018-03-08T06:36:10.033Z,40.22
2018-03-08T06:37:10.335Z,40.17
2018-03-08T06:38:10.034Z,40.28
2018-03-08T06:39:10.040Z,40.24
2018-03-08T06:40:10.034Z,40.2
2018-03-08T06:41:10.031Z,40.21
2018-03-08T06:42:10.065Z,40.2
2018-03-08T06:43:10.024Z,40.18
2018-03-08T06:44:10.035Z,40.2
2018-03-08T06:45:10.037Z,40.2
2018-03-08T06:46:10.020Z,40.22
2018-03-08T06:47:10.047Z,40.19
2018-03-08T06:48:10.063Z,40.15
2018-03-08T06:49:10.047Z,40.18
2018-03-08T06:50:10.036Z,40.15
2018-03-08T06:51:10.006Z,40.14
2018-03-08T06:52:10.021Z,40.15
2018-03-08T06:53:10.290Z,40.07
2018-03-08T06:54:10.007Z,40.12
2018-03-08T06:55:10.004Z,40.12
2018-03-08T06:56:10.034Z,40.12
2018-03-08T06:57:10.022Z,40.11
2018-03-08T06:58:10.052Z,40.09
2018-03-08T06:59:10.025Z,40.1
2018-03-08T07:00:10.015Z,40.12
2018-03-08T07:01:10.033Z,40.14
2018-03-08T07:02:10.033Z,40.04
2018-03-08T07:03:10.029Z,40.1
2018-03-08T07:04:10.081Z,40.14
2018-03-08T07:05:10.157Z,40.05
2018-03-08T07:06:10.012Z,40.09
2018-03-08T07:07:10.026Z,40.05
2018-03-08T07:08:10.024Z,40.09
2018-03-08T07:09:10.010Z,40.06
2018-03-08T07:10:10.025Z,40.06
2018-03-08T07:11:10.032Z,40.08
2018-03-08T07:12:10.024Z,40.02
2018-03-08T07:13:10.037Z,40.02
2018-03-08T07:14:10.024Z,40.08
2018-03-08T07:15:10.020Z,40.09
2018-03-08T07:16:10.293Z,40.06
2018-03-08T07:17:10.016Z,40.05
2018-03-08T07:18:10.040Z,40.04
2018-03-08T07:19:10.024Z,40.05
2018-03-08T07:20:10.024Z,40.05
2018-03-08T07:21:10.039Z,40.01
2018-03-08T07:22:10.020Z,40.06
2018-03-08T07:23:10.031Z,40.04
2018-03-08T07:24:10.011Z,40.04
2018-03-08T07:25:10.118Z,40.04
2018-03-08T07:26:10.032Z,40.04
2018-03-08T07:27:10.013Z,40.02
2018-03-08T07:28:10.004Z,39.98
2018-03-08T07:29:10.016Z,40
2018-03-08T07:30:10.005Z,40.08
2018-03-08T07:31:10.030Z,39.93
2018-03-08T07:32:10.033Z,39.84
2018-03-08T07:33:10.023Z,39.88
2018-03-08T07:34:10.021Z,39.76
2018-03-08T07:35:10.281Z,39.67
2018-03-08T07:36:10.015Z,39.42
2018-03-08T07:37:10.031Z,39.75
2018-03-08T07:38:10.003Z,40.01
2018-03-08T07:39:10.006Z,39.98
2018-03-08T07:40:10.041Z,40.04
2018-03-08T07:41:10.018Z,40.07
2018-03-08T07:42:10.048Z,40.06
2018-03-08T07:43:10.010Z,40.1
2018-03-08T07:44:10.037Z,40.08
2018-03-08T07:45:10.022Z,40.05
2018-03-08T07:46:10.013Z,40.07
2018-03-08T07:47:10.018Z,39.96
2018-03-08T07:48:10.020Z,40.01
2018-03-08T07:49:09.996Z,40.01
2018-03-08T07:50:10.025Z,39.93
2018-03-08T07:51:10.002Z,40
2018-03-08T07:52:10.011Z,39.98
2018-03-08T07:53:10.015Z,39.98
2018-03-08T07:54:10.015Z,39.98
2018-03-08T07:55:10.025Z,39.98
2018-03-08T07:56:10.011Z,39.98
2018-03-08T07:57:10.009Z,39.96
2018-03-08T07:58:10.028Z,39.92
2018-03-08T07:59:10.024Z,39.92
2018-03-08T08:00:10.002Z,39.95
2018-03-08T08:01:10.009Z,39.97
2018-03-08T08:02:10.198Z,39.91
2018-03-08T08:03:10.003Z,39.93
2018-03-08T08:04:10.016Z,39.92
2018-03-08T08:05:09.998Z,39.92
2018-03-08T08:06:10.006Z,39.9
2018-03-08T08:07:10.011Z,39.87
2018-03-08T08:08:10.296Z,39.87
2018-03-08T08:09:10.060Z,39.9
2018-03-08T08:10:10.009Z,39.86
2018-03-08T08:11:09.997Z,39.85
2018-03-08T08:12:09.991Z,39.89
2018-03-08T08:13:10.023Z,39.89
2018-03-08T08:14:10.001Z,39.9
2018-03-08T08:15:09.996Z,39.86
2018-03-08T08:16:09.995Z,39.88
2018-03-08T08:17:10.005Z,39.84
2018-03-08T08:18:10.020Z,39.86
2018-03-08T08:19:10.012Z,39.83
2018-03-08T08:20:10.009Z,39.89
2018-03-08T08:21:10.246Z,39.88
2018-03-08T08:22:09.991Z,39.84
2018-03-08T08:23:09.994Z,39.8
2018-03-08T08:24:10.020Z,39.82
2018-03-08T08:25:09.997Z,39.83
2018-03-08T08:26:09.997Z,39.79
2018-03-08T08:27:10.001Z,39.79
2018-03-08T08:28:10.021Z,39.78
2018-03-08T08:29:10.004Z,39.74
2018-03-08T08:30:09.999Z,39.82
2018-03-08T08:31:10.001Z,39.79
2018-03-08T08:32:09.986Z,39.81
2018-03-08T08:33:09.999Z,39.77
2018-03-08T08:34:10.253Z,39.8
2018-03-08T08:35:09.993Z,39.79
2018-03-08T08:36:10.034Z,39.8
2018-03-08T08:37:09.987Z,39.72
2018-03-08T08:38:10.000Z,39.72
2018-03-08T08:39:10.006Z,39.76
2018-03-08T08:40:09.998Z,39.75
2018-03-08T08:41:09.980Z,39.77
2018-03-08T08:42:10.006Z,39.74
2018-03-08T08:43:09.979Z,39.75
2018-03-08T08:44:09.987Z,39.72
2018-03-08T08:45:09.977Z,39.77
2018-03-08T08:46:09.985Z,39.75
2018-03-08T08:47:09.964Z,39.71
2018-03-08T08:48:09.981Z,39.77
2018-03-08T08:49:09.989Z,39.71
2018-03-08T08:50:10.003Z,39.73
2018-03-08T08:51:09.982Z,39.73
2018-03-08T08:52:09.992Z,39.7
2018-03-08T08:53:09.985Z,39.71
2018-03-08T08:54:10.027Z,39.74
2018-03-08T08:55:10.033Z,39.73
2018-03-08T08:56:09.995Z,39.69
2018-03-08T08:57:09.962Z,39.73
2018-03-08T08:58:09.976Z,39.73
2018-03-08T08:59:09.972Z,39.73
2018-03-08T09:00:10.118Z,39.8
2018-03-08T09:01:09.989Z,39.72
2018-03-08T09:02:09.984Z,39.68
2018-03-08T09:03:10.252Z,39.73
2018-03-08T09:04:09.985Z,39.73
2018-03-08T09:05:10.044Z,39.65
2018-03-08T09:06:09.994Z,39.67
2018-03-08T09:07:09.983Z,39.69
2018-03-08T09:08:09.993Z,39.72
2018-03-08T09:09:09.987Z,39.71
2018-03-08T09:10:09.981Z,39.65
2018-03-08T09:11:10.001Z,39.68
2018-03-08T09:12:09.979Z,39.72
2018-03-08T09:13:10.005Z,39.68
2018-03-08T09:14:09.982Z,39.73
2018-03-08T09:15:10.174Z,39.69
2018-03-08T09:16:09.965Z,39.71
2018-03-08T09:17:09.995Z,39.68
2018-03-08T09:18:09.993Z,39.66
2018-03-08T09:19:09.962Z,39.69
2018-03-08T09:20:09.969Z,39.68
2018-03-08T09:21:09.969Z,39.65
2018-03-08T09:22:09.979Z,39.67
2018-03-08T09:23:09.992Z,39.63
2018-03-08T09:24:09.985Z,39.64
2018-03-08T09:25:09.984Z,39.64
2018-03-08T09:26:09.964Z,39.67
2018-03-08T09:27:09.980Z,39.6
2018-03-08T09:28:09.968Z,39.63
2018-03-08T09:29:09.978Z,39.66
2018-03-08T09:30:09.999Z,39.62
2018-03-08T09:31:09.981Z,39.64
2018-03-08T09:32:10.021Z,39.62
2018-03-08T09:33:09.979Z,39.65
2018-03-08T09:34:09.968Z,39.67
2018-03-08T09:35:09.967Z,39.65
2018-03-08T09:36:09.962Z,39.61
2018-03-08T09:37:09.977Z,39.65
2018-03-08T09:38:10.012Z,39.61
2018-03-08T09:39:10.013Z,39.59
2018-03-08T09:40:09.980Z,39.61
2018-03-08T09:41:09.956Z,39.61
2018-03-08T09:42:09.961Z,39.62
2018-03-08T09:43:09.979Z,39.57
2018-03-08T09:44:09.964Z,39.63
2018-03-08T09:45:09.950Z,39.55
2018-03-08T09:46:09.978Z,39.59
2018-03-08T09:47:09.965Z,39.64
2018-03-08T09:48:09.959Z,39.63
2018-03-08T09:49:10.369Z,39.59
2018-03-08T09:50:09.989Z,39.59
2018-03-08T09:51:09.978Z,39.61
2018-03-08T09:52:09.999Z,39.56
2018-03-08T09:53:09.967Z,39.55
2018-03-08T09:54:09.959Z,39.61
2018-03-08T09:55:09.960Z,39.61
2018-03-08T09:56:09.960Z,39.58
2018-03-08T09:57:09.972Z,39.58
2018-03-08T09:58:09.953Z,39.58
2018-03-08T09:59:09.961Z,39.55
2018-03-08T10:00:09.962Z,39.54
2018-03-08T10:01:09.973Z,39.58
2018-03-08T10:02:09.969Z,39.6
2018-03-08T10:03:09.954Z,39.58
2018-03-08T10:04:10.020Z,39.57
2018-03-08T10:05:09.971Z,39.55
2018-03-08T10:06:09.976Z,39.55
2018-03-08T10:07:09.973Z,39.56
2018-03-08T10:08:09.972Z,39.5
2018-03-08T10:09:09.986Z,39.53
2018-03-08T10:10:09.953Z,39.55
2018-03-08T10:11:09.958Z,39.54
2018-03-08T10:12:09.946Z,39.59
2018-03-08T10:13:10.466Z,39.55
2018-03-08T10:14:10.010Z,39.55
2018-03-08T10:15:09.948Z,39.59
2018-03-08T10:16:09.971Z,39.58
2018-03-08T10:17:09.952Z,39.59
2018-03-08T10:18:09.974Z,39.54
2018-03-08T10:19:09.981Z,39.54
2018-03-08T10:20:09.940Z,39.55
2018-03-08T10:21:09.947Z,39.53
2018-03-08T10:22:09.946Z,39.54
2018-03-08T10:23:09.953Z,39.54
2018-03-08T10:24:09.980Z,39.51
2018-03-08T10:25:09.961Z,39.51
2018-03-08T10:26:10.364Z,39.49
2018-03-08T10:27:09.960Z,39.54
2018-03-08T10:28:10.012Z,39.51
2018-03-08T10:29:09.986Z,39.49
2018-03-08T10:30:09.957Z,39.49
2018-03-08T10:31:09.951Z,39.51
2018-03-08T10:32:09.978Z,39.54
2018-03-08T10:33:09.976Z,39.53
2018-03-08T10:34:09.959Z,39.49
2018-03-08T10:35:09.931Z,39.5
2018-03-08T10:36:09.928Z,39.54
2018-03-08T10:37:09.942Z,39.51
2018-03-08T10:38:09.966Z,39.44
2018-03-08T10:40:09.960Z,39.5
2018-03-08T10:41:10.787Z,39.81
2018-03-08T10:42:09.952Z,39.58
2018-03-08T10:43:09.960Z,39.46
2018-03-08T10:44:09.929Z,39.46
2018-03-08T10:45:10.286Z,39.48
2018-03-08T10:46:09.926Z,39.5
2018-03-08T10:47:09.937Z,39.5
2018-03-08T10:48:09.939Z,39.53
2018-03-08T10:49:10.235Z,39.51
2018-03-08T10:50:09.922Z,39.48
2018-03-08T10:51:09.937Z,39.49
2018-03-08T10:52:09.946Z,39.5
2018-03-08T10:53:09.925Z,39.46
2018-03-08T10:54:09.959Z,39.48
2018-03-08T10:55:09.938Z,39.5
2018-03-08T10:56:09.951Z,39.45
2018-03-08T10:57:09.922Z,39.49
2018-03-08T10:58:09.921Z,39.46
2018-03-08T10:59:09.953Z,39.49
2018-03-08T11:00:09.929Z,39.43
2018-03-08T11:01:09.935Z,39.45
2018-03-08T11:02:09.923Z,39.49
2018-03-08T11:03:10.373Z,39.51
2018-03-08T11:04:09.971Z,39.48
2018-03-08T11:05:09.938Z,39.43
2018-03-08T11:06:09.998Z,39.52
2018-03-08T11:07:10.094Z,39.47
2018-03-08T11:08:09.925Z,39.46
2018-03-08T11:09:10.001Z,39.44
2018-03-08T11:10:10.012Z,39.47
2018-03-08T11:11:09.932Z,39.42
2018-03-08T11:12:09.941Z,39.44
2018-03-08T11:13:09.938Z,39.47
2018-03-08T11:14:10.257Z,39.42
2018-03-08T11:15:09.926Z,39.44
2018-03-08T11:16:09.939Z,39.45
2018-03-08T11:17:09.939Z,39.47
2018-03-08T11:18:10.282Z,39.51
2018-03-08T11:19:09.973Z,39.44
2018-03-08T11:20:09.926Z,39.47
2018-03-08T11:21:09.939Z,39.4
2018-03-08T11:22:09.927Z,39.44
2018-03-08T11:23:09.960Z,39.44
2018-03-08T11:24:09.945Z,39.44
2018-03-08T11:25:09.948Z,39.47
2018-03-08T11:26:09.928Z,39.48
2018-03-08T11:27:09.935Z,39.45
2018-03-08T11:28:09.934Z,39.45
2018-03-08T11:29:09.937Z,39.44
2018-03-08T11:30:09.920Z,39.41
2018-03-08T11:31:09.949Z,39.47
2018-03-08T11:32:09.937Z,39.45
2018-03-08T11:33:09.927Z,39.43
2018-03-08T11:34:09.977Z,39.49
2018-03-08T11:35:09.943Z,39.41
2018-03-08T11:36:09.921Z,39.41
2018-03-08T11:37:09.923Z,39.44
2018-03-08T11:38:09.936Z,39.46
2018-03-08T11:39:09.942Z,39.38
2018-03-08T11:40:09.923Z,39.42
2018-03-08T11:41:09.921Z,39.4
2018-03-08T11:42:09.908Z,39.4
2018-03-08T11:43:09.954Z,39.42
2018-03-08T11:44:10.040Z,39.42
2018-03-08T11:45:09.964Z,39.43
2018-03-08T11:46:09.919Z,39.46
2018-03-08T11:47:09.926Z,39.39
2018-03-08T11:48:10.966Z,39.42
2018-03-08T11:49:09.936Z,39.42
2018-03-08T11:50:09.943Z,39.43
2018-03-08T11:51:09.930Z,39.43
2018-03-08T11:52:09.930Z,39.43
2018-03-08T11:53:09.953Z,39.42
2018-03-08T11:54:09.916Z,39.42
2018-03-08T11:55:09.954Z,39.39
2018-03-08T11:56:09.927Z,39.41
2018-03-08T11:57:09.914Z,39.42
2018-03-08T11:58:09.922Z,39.39
2018-03-08T11:59:09.910Z,39.41
2018-03-08T12:00:09.953Z,39.39
2018-03-08T12:01:09.923Z,39.39
2018-03-08T12:02:09.936Z,39.35
2018-03-08T12:03:09.913Z,39.38
2018-03-08T12:04:09.943Z,39.39
2018-03-08T12:05:09.912Z,39.38
2018-03-08T12:06:09.919Z,39.38
2018-03-08T12:07:09.908Z,39.39
2018-03-08T12:08:09.910Z,39.44
2018-03-08T12:09:09.926Z,39.4
2018-03-08T12:10:10.201Z,39.4
2018-03-08T12:11:09.931Z,39.37
2018-03-08T12:12:09.909Z,39.39
2018-03-08T12:13:09.919Z,39.42
2018-03-08T12:14:09.938Z,39.37
2018-03-08T12:15:09.946Z,39.37
2018-03-08T12:16:09.935Z,39.37
2018-03-08T12:17:09.910Z,39.4
2018-03-08T12:18:09.915Z,39.41
2018-03-08T12:19:09.959Z,39.41
2018-03-08T12:20:09.904Z,39.38
2018-03-08T12:21:09.907Z,39.42
2018-03-08T12:22:09.918Z,39.42
2018-03-08T12:23:10.251Z,39.38
2018-03-08T12:24:09.910Z,39.41
2018-03-08T12:25:09.913Z,39.39
2018-03-08T12:26:09.897Z,39.37
2018-03-08T12:27:09.906Z,39.36
2018-03-08T12:28:10.465Z,39.42
2018-03-08T12:29:09.914Z,39.41
2018-03-08T12:30:09.912Z,39.42
2018-03-08T12:31:09.924Z,39.42
2018-03-08T12:32:09.900Z,39.41
2018-03-08T12:33:09.758Z,39.37
2018-03-08T12:34:09.909Z,39.41
2018-03-08T12:35:09.913Z,39.39
2018-03-08T12:37:09.903Z,39.35
2018-03-08T12:38:09.906Z,39.41
2018-03-08T12:39:09.906Z,39.39
2018-03-08T12:40:09.893Z,39.43
2018-03-08T12:41:09.919Z,39.37
2018-03-08T12:42:09.910Z,39.38
2018-03-08T12:43:09.899Z,39.43
2018-03-08T12:44:09.914Z,39.39
2018-03-08T12:45:09.903Z,39.42
2018-03-08T12:46:09.938Z,39.42
2018-03-08T12:47:09.905Z,39.42
2018-03-08T12:48:09.907Z,39.43
2018-03-08T12:49:09.906Z,39.43
2018-03-08T12:50:09.929Z,39.4
2018-03-08T12:51:09.915Z,39.42
2018-03-08T12:52:09.884Z,39.37
2018-03-08T12:53:09.994Z,39.36
2018-03-08T12:54:09.915Z,39.39
2018-03-08T12:55:09.900Z,39.42
2018-03-08T12:56:09.914Z,39.39
2018-03-08T12:57:09.900Z,39.39